createdAt,value
2019-02-23T00:00:41.417Z,104091.05
2019-02-23T00:03:08.668Z,104095.81
2019-02-23T00:05:35.929Z,104097.22
2019-02-23T00:08:03.217Z,104097.46
2019-02-23T00:10:30.494Z,104096.06
2019-02-23T00:12:57.857Z,104088.69
2019-02-23T00:15:25.114Z,104088.84
2019-02-23T00:17:52.421Z,104091.38
2019-02-23T00:20:19.651Z,104102.98
2019-02-23T00:22:46.945Z,104091.23
2019-02-23T00:25:14.234Z,104089.73
2019-02-23T00:27:41.535Z,104088.13
2019-02-23T00:30:09.030Z,104090.52
2019-02-23T00:32:36.327Z,104087.91
2019-02-23T00:35:03.698Z,104094.67
2019-02-23T00:37:30.975Z,104096.76
2019-02-23T00:39:58.245Z,104093.30
2019-02-23T00:42:25.495Z,104105.44
2019-02-23T00:44:52.774Z,104098.38
2019-02-23T00:47:20.043Z,104101.43
2019-02-23T00:49:47.349Z,104095.89
2019-02-23T00:52:14.620Z,104096.60
2019-02-23T00:54:41.902Z,104102.02
2019-02-23T00:57:09.203Z,104090.47
2019-02-23T00:59:36.454Z,104089.97
2019-02-23T01:02:03.735Z,104093.98
2019-02-23T01:04:30.988Z,104092.65
2019-02-23T01:06:58.347Z,104101.50
2019-02-23T01:09:25.577Z,104095.44
2019-02-23T01:11:52.879Z,104103.72
2019-02-23T01:14:20.156Z,104095.77
2019-02-23T01:16:47.461Z,104093.17
2019-02-23T01:19:14.752Z,104093.17
2019-02-23T01:21:42.047Z,104084.55
2019-02-23T01:24:09.308Z,104081.80
2019-02-23T01:26:36.580Z,104083.52
2019-02-23T01:29:03.854Z,104088.03
2019-02-23T01:31:31.140Z,104093.35
2019-02-23T01:33:58.393Z,104094.09
2019-02-23T01:36:25.647Z,104096.77
2019-02-23T01:38:52.937Z,104104.91
2019-02-23T01:41:20.399Z,104109.45
2019-02-23T01:43:47.755Z,104105.67
2019-02-23T01:46:15.038Z,104105.63
2019-02-23T01:48:42.269Z,104110.03
2019-02-23T01:51:09.525Z,104111.98
2019-02-23T01:53:36.795Z,104122.28
2019-02-23T01:56:04.065Z,104120.12
2019-02-23T01:58:31.342Z,104111.97
2019-02-23T02:00:58.669Z,104113.38
2019-02-23T02:03:25.927Z,104111.33
2019-02-23T02:05:55.684Z,104106.24
2019-02-23T02:08:22.930Z,104105.75
2019-02-23T02:10:50.288Z,104107.45
2019-02-23T02:13:17.714Z,104105.02
2019-02-23T02:15:45.094Z,104103.88
2019-02-23T02:18:12.339Z,104103.00
2019-02-23T02:20:39.634Z,104104.31
2019-02-23T02:23:06.907Z,104112.67
2019-02-23T02:25:34.163Z,104112.44
2019-02-23T02:28:01.457Z,104113.08
2019-02-23T02:30:28.742Z,104117.34
2019-02-23T02:32:55.973Z,104116.56
2019-02-23T02:35:26.193Z,104112.37
2019-02-23T02:37:53.468Z,104113.84
2019-02-23T02:40:20.755Z,104112.09
2019-02-23T02:42:48.058Z,104111.36
2019-02-23T02:45:15.301Z,104120.00
2019-02-23T02:47:42.553Z,104120.53
2019-02-23T02:50:20.860Z,104113.03
2019-02-23T02:52:39.319Z,104109.47
2019-02-23T02:55:07.783Z,104122.25
2019-02-23T02:57:35.049Z,104114.19
2019-02-23T03:00:02.511Z,104108.88
2019-02-23T03:02:29.753Z,104110.23
2019-02-23T03:04:57.564Z,104109.44
2019-02-23T03:07:24.928Z,104106.71
2019-02-23T03:09:54.450Z,104110.95
2019-02-23T03:12:21.783Z,104112.50
2019-02-23T03:14:49.142Z,104110.42
2019-02-23T03:17:16.395Z,104108.22
2019-02-23T03:19:43.637Z,104111.48
2019-02-23T03:22:10.901Z,104111.98
2019-02-23T03:24:38.132Z,104113.80
2019-02-23T03:27:05.430Z,104113.89
2019-02-23T03:29:32.743Z,104112.75
2019-02-23T03:32:00.006Z,104116.15
2019-02-23T03:34:27.302Z,104112.55
2019-02-23T03:36:54.597Z,104106.41
2019-02-23T03:39:21.834Z,104101.78
2019-02-23T03:41:49.086Z,104098.81
2019-02-23T03:44:16.377Z,104108.18
2019-02-23T03:46:43.619Z,104108.53
2019-02-23T03:49:10.868Z,104113.09
2019-02-23T03:51:38.144Z,104107.17
2019-02-23T03:54:05.487Z,104109.97
2019-02-23T03:56:33.329Z,104107.16
2019-02-23T03:59:00.732Z,104106.03
2019-02-23T04:01:28.090Z,104108.86
2019-02-23T04:03:55.328Z,104103.30
2019-02-23T04:06:22.652Z,104104.37
2019-02-23T04:08:49.899Z,104091.61
2019-02-23T04:11:17.143Z,104093.86
2019-02-23T04:13:44.437Z,104090.10
2019-02-23T04:16:11.726Z,104094.13
2019-02-23T04:18:39.364Z,104093.94
2019-02-23T04:21:06.659Z,104093.23
2019-02-23T04:23:33.914Z,104092.12
2019-02-23T04:26:01.189Z,104085.46
2019-02-23T04:28:28.496Z,104084.16
2019-02-23T04:30:55.825Z,104095.10
2019-02-23T04:33:23.073Z,104094.58
2019-02-23T04:35:50.355Z,104101.77
2019-02-23T04:38:17.602Z,104111.13
2019-02-23T04:40:44.857Z,104114.57
2019-02-23T04:43:12.149Z,104128.52
2019-02-23T04:45:39.389Z,104118.73
2019-02-23T04:48:06.658Z,104127.21
2019-02-23T04:50:33.976Z,104121.48
2019-02-23T04:53:01.252Z,104118.86
2019-02-23T04:55:28.492Z,104111.72
2019-02-23T04:57:55.760Z,104105.60
2019-02-23T05:00:23.058Z,104108.73
2019-02-23T05:02:50.292Z,104104.53
2019-02-23T05:05:17.556Z,104092.44
2019-02-23T05:07:44.825Z,104083.91
2019-02-23T05:10:12.075Z,104091.02
2019-02-23T05:12:39.347Z,104091.64
2019-02-23T05:15:07.638Z,104094.25
2019-02-23T05:17:34.946Z,104096.66
2019-02-23T05:20:02.244Z,104091.64
2019-02-23T05:22:29.508Z,104087.25
2019-02-23T05:24:56.752Z,104083.05
2019-02-23T05:27:26.830Z,104075.83
2019-02-23T05:29:54.145Z,104079.36
2019-02-23T05:32:21.386Z,104073.52
2019-02-23T05:34:48.633Z,104068.45
2019-02-23T05:37:15.915Z,104071.34
2019-02-23T05:39:43.160Z,104064.26
2019-02-23T05:42:10.405Z,104062.86
2019-02-23T05:44:37.913Z,104057.17
2019-02-23T05:47:05.350Z,104055.20
2019-02-23T05:49:32.660Z,104053.34
2019-02-23T05:51:59.966Z,104061.47
2019-02-23T05:54:32.111Z,104060.80
2019-02-23T05:57:02.724Z,104052.36
2019-02-23T05:59:41.444Z,104047.53
2019-02-23T06:02:10.276Z,104055.88
2019-02-23T06:04:37.513Z,104047.05
2019-02-23T06:07:04.775Z,104054.34
2019-02-23T06:09:32.032Z,104054.48
2019-02-23T06:11:59.330Z,104055.42
2019-02-23T06:14:27.009Z,104059.33
2019-02-23T06:16:56.426Z,104055.30
2019-02-23T06:19:23.810Z,104051.80
2019-02-23T06:21:54.221Z,104059.85
2019-02-23T06:24:20.225Z,104060.95
2019-02-23T06:26:47.496Z,104060.23
2019-02-23T06:29:14.887Z,104064.62
2019-02-23T06:31:49.170Z,104057.14
2019-02-23T06:34:16.928Z,104065.38
2019-02-23T06:36:44.369Z,104060.33
2019-02-23T06:39:12.136Z,104057.19
2019-02-23T06:41:39.535Z,104054.19
2019-02-23T06:44:06.796Z,104054.78
2019-02-23T06:46:34.079Z,104061.56
2019-02-23T06:49:01.407Z,104068.90
2019-02-23T06:51:28.640Z,104071.27
2019-02-23T06:53:55.900Z,104079.45
2019-02-23T06:56:23.184Z,104082.84
2019-02-23T06:58:50.457Z,104080.32
2019-02-23T07:01:18.709Z,104077.78
2019-02-23T07:03:45.993Z,104072.48
2019-02-23T07:06:13.410Z,104067.64
2019-02-23T07:08:40.648Z,104072.31
2019-02-23T07:11:07.883Z,104072.22
2019-02-23T07:13:35.205Z,104083.70
2019-02-23T07:16:02.444Z,104084.17
2019-02-23T07:18:29.685Z,104089.09
2019-02-23T07:20:57.106Z,104095.38
2019-02-23T07:23:24.373Z,104088.86
2019-02-23T07:25:51.646Z,104090.62
2019-02-23T07:28:19.067Z,104091.73
2019-02-23T07:30:46.349Z,104085.97
2019-02-23T07:33:13.625Z,104081.62
2019-02-23T07:35:40.905Z,104092.12
2019-02-23T07:38:08.178Z,104089.62
2019-02-23T07:40:35.474Z,104086.78
2019-02-23T07:43:02.751Z,104081.47
2019-02-23T07:45:30.012Z,104086.91
2019-02-23T07:47:57.273Z,104088.59
2019-02-23T07:50:24.545Z,104088.64
2019-02-23T07:52:51.800Z,104088.97
2019-02-23T07:55:19.121Z,104090.45
2019-02-23T07:57:46.371Z,104093.72
2019-02-23T08:00:13.926Z,104089.50
2019-02-23T08:02:41.636Z,104098.23
2019-02-23T08:05:09.020Z,104097.08
2019-02-23T08:07:36.309Z,104103.96
2019-02-23T08:10:04.132Z,104095.86
2019-02-23T08:12:31.384Z,104101.15
2019-02-23T08:14:58.952Z,104102.96
2019-02-23T08:17:26.244Z,104103.50
2019-02-23T08:19:53.542Z,104106.64
2019-02-23T08:22:20.803Z,104115.59
2019-02-23T08:24:48.126Z,104111.34
2019-02-23T08:27:15.415Z,104115.50
2019-02-23T08:29:42.725Z,104103.05
2019-02-23T08:32:10.024Z,104101.22
2019-02-23T08:34:37.257Z,104099.54
2019-02-23T08:37:04.493Z,104094.92
2019-02-23T08:39:32.054Z,104095.72
2019-02-23T08:41:59.312Z,104106.34
2019-02-23T08:44:26.620Z,104101.35
2019-02-23T08:46:53.879Z,104104.79
2019-02-23T08:49:21.167Z,104103.60
2019-02-23T08:51:48.421Z,104099.45
2019-02-23T08:54:15.643Z,104096.01
2019-02-23T08:56:42.940Z,104095.52
2019-02-23T08:59:10.204Z,104097.97
2019-02-23T09:01:37.450Z,104090.99
2019-02-23T09:04:04.737Z,104096.23
2019-02-23T09:06:31.965Z,104082.73
2019-02-23T09:08:59.196Z,104076.30
2019-02-23T09:11:26.485Z,104073.27
2019-02-23T09:13:53.726Z,104064.20
2019-02-23T09:16:20.973Z,104060.00
2019-02-23T09:18:48.239Z,104061.31
2019-02-23T09:21:15.483Z,104064.52
2019-02-23T09:23:42.750Z,104063.14
2019-02-23T09:26:10.041Z,104062.80
2019-02-23T09:28:37.354Z,104051.89
2019-02-23T09:31:05.005Z,104046.16
2019-02-23T09:33:32.280Z,104048.72
2019-02-23T09:35:59.567Z,104044.85
2019-02-23T09:38:26.889Z,104054.31
2019-02-23T09:40:54.782Z,104041.66
2019-02-23T09:43:22.048Z,104049.98
2019-02-23T09:45:49.330Z,104046.87
2019-02-23T09:48:16.625Z,104047.04
2019-02-23T09:50:43.862Z,104042.01
2019-02-23T09:53:11.695Z,104045.55
2019-02-23T09:55:39.267Z,104042.05
2019-02-23T09:58:06.574Z,104036.14
2019-02-23T10:00:34.001Z,104033.91
2019-02-23T10:03:01.354Z,104038.19
2019-02-23T10:05:28.633Z,104036.19
2019-02-23T10:07:55.960Z,104039.16
2019-02-23T10:10:23.248Z,104042.23
2019-02-23T10:12:50.512Z,104040.29
2019-02-23T10:15:17.766Z,104037.09
2019-02-23T10:17:45.109Z,104031.62
2019-02-23T10:20:12.511Z,104038.55
2019-02-23T10:22:39.986Z,104035.23
2019-02-23T10:25:07.389Z,104032.14
2019-02-23T10:27:34.639Z,104037.56
2019-02-23T10:30:01.967Z,104031.55
2019-02-23T10:32:29.258Z,104029.09
2019-02-23T10:34:56.735Z,104028.41
2019-02-23T10:37:24.567Z,104031.31
2019-02-23T10:39:51.870Z,104028.57
2019-02-23T10:42:57.648Z,104027.33
2019-02-23T10:45:24.928Z,104024.34
2019-02-23T10:47:52.188Z,104017.50
2019-02-23T10:50:19.588Z,104019.64
2019-02-23T10:52:46.849Z,104010.57
2019-02-23T10:55:14.215Z,104015.84
2019-02-23T10:57:41.739Z,104012.84
2019-02-23T11:00:16.878Z,104017.01
2019-02-23T11:02:44.228Z,104002.83
2019-02-23T11:05:11.668Z,104012.49
2019-02-23T11:07:38.950Z,104008.48
2019-02-23T11:10:06.539Z,104007.68
2019-02-23T11:12:33.801Z,104005.72
2019-02-23T11:15:01.130Z,104002.59
2019-02-23T11:17:28.485Z,104002.06
2019-02-23T11:19:55.753Z,103997.33
2019-02-23T11:22:23.040Z,104003.27
2019-02-23T11:24:50.285Z,103998.17
2019-02-23T11:27:17.519Z,103992.91
2019-02-23T11:29:44.861Z,103995.80
2019-02-23T11:32:12.116Z,103992.66
2019-02-23T11:34:39.416Z,103992.66
2019-02-23T11:37:06.684Z,103998.02
2019-02-23T11:39:33.986Z,103998.42
2019-02-23T11:42:01.269Z,104001.09
2019-02-23T11:44:28.544Z,103990.28
2019-02-23T11:47:03.052Z,103994.75
2019-02-23T11:49:25.040Z,103992.77
2019-02-23T11:51:52.299Z,103992.54
2019-02-23T11:54:19.570Z,103985.82
2019-02-23T11:56:46.924Z,103988.05
2019-02-23T11:59:14.235Z,103986.17
2019-02-23T12:01:41.531Z,103971.69
2019-02-23T12:04:08.889Z,103971.69
2019-02-23T12:06:36.197Z,103973.66
2019-02-23T12:09:04.400Z,103966.38
2019-02-23T12:11:31.674Z,103958.41
2019-02-23T12:13:59.107Z,103968.87
2019-02-23T12:16:26.371Z,103968.87
2019-02-23T12:18:53.699Z,103970.61
2019-02-23T12:21:20.985Z,103970.61
2019-02-23T12:23:48.261Z,103961.34
2019-02-23T12:26:15.553Z,103956.27
2019-02-23T12:28:42.864Z,103950.38
2019-02-23T12:31:10.212Z,103950.38
2019-02-23T12:33:37.755Z,103944.25
2019-02-23T12:36:05.175Z,103946.35
2019-02-23T12:38:32.486Z,103951.83
2019-02-23T12:40:59.820Z,103945.01
2019-02-23T12:43:27.091Z,103943.53
2019-02-23T12:45:57.187Z,103935.86
2019-02-23T12:48:24.504Z,103941.23
2019-02-23T12:50:51.779Z,103938.53
2019-02-23T12:53:19.067Z,103928.42
2019-02-23T12:55:46.386Z,103930.04
2019-02-23T12:58:13.663Z,103929.17
2019-02-23T13:00:40.961Z,103912.86
2019-02-23T13:03:08.236Z,103912.86
2019-02-23T13:05:35.546Z,103909.38
2019-02-23T13:08:03.063Z,103912.95
2019-02-23T13:10:30.364Z,103908.80
2019-02-23T13:13:39.508Z,103908.80
2019-02-23T13:16:38.031Z,103910.01
2019-02-23T13:19:48.461Z,103911.36
2019-02-23T13:22:44.592Z,103906.91
2019-02-23T13:25:56.501Z,103910.38
2019-02-23T13:28:56.870Z,103910.38
2019-02-23T13:32:07.614Z,103912.45
2019-02-23T13:35:24.558Z,103915.90
2019-02-23T13:38:11.713Z,103913.66
2019-02-23T13:41:02.037Z,103905.99
2019-02-23T13:44:23.182Z,103920.55
2019-02-23T13:46:59.860Z,103908.92
2019-02-23T13:50:13.938Z,103896.87
2019-02-23T13:53:09.965Z,103896.87
2019-02-23T13:56:20.617Z,103886.41
2019-02-23T13:59:57.085Z,103895.66
2019-02-23T14:03:05.433Z,103886.37
2019-02-23T14:06:10.478Z,103886.37
2019-02-23T14:09:10.501Z,103891.53
2019-02-23T14:12:05.409Z,103890.59
2019-02-23T14:15:07.973Z,103876.40
2019-02-23T14:18:27.893Z,103883.63
2019-02-23T14:21:25.011Z,103879.09
2019-02-23T14:24:49.700Z,103882.88
2019-02-23T14:27:42.514Z,103877.17
2019-02-23T14:30:40.593Z,103873.22
2019-02-23T14:33:25.432Z,103872.31
2019-02-23T14:36:33.361Z,103879.95
2019-02-23T14:39:39.472Z,103881.55
2019-02-23T14:42:31.660Z,103878.88
2019-02-23T14:45:37.000Z,103879.38
2019-02-23T14:48:44.535Z,103875.55
2019-02-23T14:51:55.711Z,103871.73
2019-02-23T14:55:01.826Z,103871.73
2019-02-23T14:58:08.005Z,103873.59
2019-02-23T15:01:02.827Z,103867.06
2019-02-23T15:04:18.125Z,103867.06
2019-02-23T15:07:24.089Z,103875.25
2019-02-23T15:10:21.796Z,103905.20
2019-02-23T15:13:41.806Z,103873.05
2019-02-23T15:16:40.911Z,103874.84
2019-02-23T15:19:49.263Z,103874.42
2019-02-23T15:23:03.177Z,103852.34
2019-02-23T15:25:59.378Z,103848.05
2019-02-23T15:29:17.666Z,103848.05
2019-02-23T15:32:29.413Z,103851.38
2019-02-23T15:35:41.961Z,103852.19
2019-02-23T15:39:13.031Z,103848.38
2019-02-23T15:42:22.371Z,103845.11
2019-02-23T15:45:28.634Z,103843.42
2019-02-23T15:48:12.546Z,103835.55
2019-02-23T15:50:39.920Z,103849.33
2019-02-23T15:53:07.381Z,103849.33
2019-02-23T15:55:34.700Z,103841.14
2019-02-23T15:58:02.436Z,103841.14
2019-02-23T16:00:29.740Z,103830.48
2019-02-23T16:02:57.074Z,103830.48
2019-02-23T16:05:24.367Z,103824.52
2019-02-23T16:07:51.631Z,103824.52
2019-02-23T16:10:18.901Z,103828.92
2019-02-23T16:12:46.187Z,103821.74
2019-02-23T16:15:13.452Z,103821.74
2019-02-23T16:17:40.766Z,103830.73
2019-02-23T16:20:08.322Z,103830.73
2019-02-23T16:22:35.600Z,103828.52
2019-02-23T16:25:02.992Z,103830.65
2019-02-23T16:27:30.286Z,103830.73
2019-02-23T16:29:57.576Z,103830.73
2019-02-23T16:32:24.864Z,103833.13
2019-02-23T16:34:52.161Z,103831.72
2019-02-23T16:37:19.506Z,103831.79
2019-02-23T16:39:46.820Z,103844.35
2019-02-23T16:42:14.074Z,103844.35
2019-02-23T16:44:41.382Z,103835.84
2019-02-23T16:47:08.708Z,103841.54
2019-02-23T16:49:36.212Z,103834.88
2019-02-23T16:52:03.506Z,103832.54
2019-02-23T16:54:30.770Z,103840.46
2019-02-23T16:56:59.062Z,103837.61
2019-02-23T16:59:28.838Z,103840.02
2019-02-23T17:01:56.192Z,103831.23
2019-02-23T17:04:23.578Z,103831.23
2019-02-23T17:06:50.914Z,103845.86
2019-02-23T17:09:18.322Z,103843.53
2019-02-23T17:11:45.636Z,103842.64
2019-02-23T17:14:13.044Z,103841.72
2019-02-23T17:16:40.858Z,103842.37
2019-02-23T17:19:08.241Z,103842.37
2019-02-23T17:21:35.546Z,103833.98
2019-02-23T17:24:02.870Z,103833.98
2019-02-23T17:26:30.190Z,103838.72
2019-02-23T17:28:57.452Z,103835.16
2019-02-23T17:31:24.785Z,103839.89
2019-02-23T17:33:52.037Z,103838.03
2019-02-23T17:36:19.312Z,103840.14
2019-02-23T17:38:46.636Z,103839.89
2019-02-23T17:41:13.967Z,103836.06
2019-02-23T17:43:41.287Z,103849.08
2019-02-23T17:46:08.629Z,103837.91
2019-02-23T17:48:35.996Z,103844.58
2019-02-23T17:51:10.111Z,103841.92
2019-02-23T17:53:37.513Z,103838.22
2019-02-23T17:56:12.069Z,103839.02
2019-02-23T17:58:33.978Z,103845.06
2019-02-23T18:01:01.464Z,103838.73
2019-02-23T18:03:28.741Z,103838.73
2019-02-23T18:05:56.064Z,103833.83
2019-02-23T18:08:23.272Z,103833.56
2019-02-23T18:10:50.652Z,103834.45
2019-02-23T18:13:17.942Z,103843.13
2019-02-23T18:15:45.232Z,103832.12
2019-02-23T18:18:12.947Z,103838.38
2019-02-23T18:20:40.791Z,103834.17
2019-02-23T18:23:08.069Z,103833.77
2019-02-23T18:25:36.034Z,103834.17
2019-02-23T18:28:03.718Z,103837.84
2019-02-23T18:30:31.017Z,103837.02
2019-02-23T18:32:58.320Z,103832.55
2019-02-23T18:35:25.590Z,103836.46
2019-02-23T18:37:52.943Z,103833.11
2019-02-23T18:40:20.253Z,103833.59
2019-02-23T18:42:47.522Z,103835.68
2019-02-23T18:45:14.825Z,103832.78
2019-02-23T18:47:42.126Z,103835.73
2019-02-23T18:50:09.413Z,103845.28
2019-02-23T18:52:36.729Z,103829.34
2019-02-23T18:55:04.112Z,103833.52
2019-02-23T18:57:31.444Z,103839.99
2019-02-23T18:59:58.690Z,103838.37
2019-02-23T19:02:25.981Z,103837.02
2019-02-23T19:04:53.597Z,103829.91
2019-02-23T19:07:20.856Z,103828.21
2019-02-23T19:09:48.140Z,103824.83
2019-02-23T19:12:15.446Z,103823.60
2019-02-23T19:14:45.425Z,103819.91
2019-02-23T19:17:12.641Z,103816.21
2019-02-23T19:19:39.931Z,103816.30
2019-02-23T19:22:07.186Z,103814.02
2019-02-23T19:24:34.464Z,103816.25
2019-02-23T19:27:01.752Z,103809.58
2019-02-23T19:29:29.041Z,103808.06
2019-02-23T19:31:57.804Z,103810.48
2019-02-23T19:34:25.170Z,103814.28
2019-02-23T19:36:52.464Z,103815.03
2019-02-23T19:39:19.763Z,103813.05
2019-02-23T19:41:47.079Z,103813.16
2019-02-23T19:44:14.355Z,103813.00
2019-02-23T19:46:49.112Z,103804.34
2019-02-23T19:49:16.447Z,103808.45
2019-02-23T19:51:43.693Z,103812.48
2019-02-23T19:54:11.246Z,103812.48
2019-02-23T19:56:46.474Z,103813.11
2019-02-23T19:59:07.722Z,103815.00
2019-02-23T20:01:35.016Z,103820.73
2019-02-23T20:04:02.298Z,103823.35
2019-02-23T20:06:29.573Z,103828.81
2019-02-23T20:08:56.986Z,103823.42
2019-02-23T20:11:24.231Z,103821.25
2019-02-23T20:13:52.004Z,103818.08
2019-02-23T20:16:20.725Z,103817.39
2019-02-23T20:18:48.098Z,103822.78
2019-02-23T20:21:18.829Z,103822.63
2019-02-23T20:26:35.561Z,103828.64
2019-02-23T20:29:03.361Z,103830.63
2019-02-23T20:31:30.657Z,103843.09
2019-02-23T20:34:00.704Z,103839.95
2019-02-23T20:36:29.070Z,103839.33
2019-02-23T20:38:56.330Z,103851.33
2019-02-23T20:41:23.616Z,103851.16
2019-02-23T20:43:52.756Z,103840.08
2019-02-23T20:46:20.028Z,103845.47
2019-02-23T20:48:47.468Z,103844.16
2019-02-23T20:51:14.796Z,103849.52
2019-02-23T20:53:42.123Z,103856.06
2019-02-23T20:56:09.486Z,103852.53
2019-02-23T20:58:36.805Z,103856.33
2019-02-23T21:01:05.876Z,103856.00
2019-02-23T21:03:35.534Z,103860.71
2019-02-23T21:06:02.803Z,103861.86
2019-02-23T21:08:30.182Z,103868.27
2019-02-23T21:10:57.537Z,103863.78
2019-02-23T21:13:24.889Z,103875.20
2019-02-23T21:15:54.177Z,103859.50
2019-02-23T21:18:21.541Z,103867.70
2019-02-23T21:20:48.920Z,103870.59
2019-02-23T21:23:16.246Z,103866.34
2019-02-23T21:25:43.830Z,103865.65
2019-02-23T21:28:11.071Z,103857.91
2019-02-23T21:30:38.360Z,103858.36
2019-02-23T21:33:05.640Z,103859.77
2019-02-23T21:35:32.912Z,103856.00
2019-02-23T21:38:00.232Z,103854.63
2019-02-23T21:40:27.544Z,103852.03
2019-02-23T21:42:54.792Z,103854.70
2019-02-23T21:45:22.093Z,103858.25
2019-02-23T21:47:49.449Z,103852.17
2019-02-23T21:50:16.744Z,103851.34
2019-02-23T21:52:43.997Z,103843.43
2019-02-23T21:55:11.294Z,103843.84
2019-02-23T21:57:38.591Z,103841.45
2019-02-23T22:00:06.094Z,103843.47
2019-02-23T22:02:33.357Z,103845.22
2019-02-23T22:05:00.657Z,103846.44
2019-02-23T22:07:27.916Z,103844.61
2019-02-23T22:09:55.307Z,103856.67
2019-02-23T22:12:22.703Z,103853.75
2019-02-23T22:14:49.976Z,103853.97
2019-02-23T22:17:17.273Z,103852.80
2019-02-23T22:19:44.588Z,103851.89
2019-02-23T22:22:12.019Z,103849.83
2019-02-23T22:24:39.308Z,103847.44
2019-02-23T22:27:06.598Z,103844.66
2019-02-23T22:29:33.916Z,103839.44
2019-02-23T22:32:01.168Z,103840.75
2019-02-23T22:34:28.425Z,103851.06
2019-02-23T22:36:55.704Z,103838.97
2019-02-23T22:39:22.983Z,103842.88
2019-02-23T22:41:50.298Z,103845.75
2019-02-23T22:44:17.592Z,103845.59
2019-02-23T22:46:44.843Z,103843.36
2019-02-23T22:49:12.191Z,103844.89
2019-02-23T22:51:39.524Z,103845.67
2019-02-23T22:54:06.839Z,103849.80
2019-02-23T22:56:34.181Z,103847.80
2019-02-23T22:59:01.458Z,103852.08
2019-02-23T23:01:28.809Z,103850.25
2019-02-23T23:03:56.105Z,103846.16
2019-02-23T23:06:23.362Z,103844.72
2019-02-23T23:08:50.628Z,103844.94
2019-02-23T23:11:17.933Z,103840.94
2019-02-23T23:13:45.199Z,103837.63
2019-02-23T23:16:12.491Z,103837.71
2019-02-23T23:18:39.761Z,103829.63
2019-02-23T23:21:07.043Z,103833.14
2019-02-23T23:23:34.445Z,103830.75
2019-02-23T23:26:01.704Z,103830.75
2019-02-23T23:28:29.003Z,103825.01
2019-02-23T23:30:56.372Z,103833.75
2019-02-23T23:33:23.649Z,103840.49
2019-02-23T23:35:50.915Z,103850.02
2019-02-23T23:38:18.206Z,103846.70
2019-02-23T23:40:45.506Z,103847.10
2019-02-23T23:43:12.803Z,103851.62
2019-02-23T23:45:40.094Z,103857.58
2019-02-23T23:48:07.398Z,103854.05
2019-02-23T23:50:34.724Z,103867.70
2019-02-23T23:53:01.983Z,103865.39
2019-02-23T23:55:29.271Z,103860.47
2019-02-23T23:57:58.557Z,103868.11
